Willard, Ohio
Current Conditions -  °F | °C
As of 9:52 PM on Wednesday 26 Nov 2014 (Local Time) from KMFD Reporting Station
Haze Haze  
Wind Chill: 22°   Ceiling: 3000
Heat Index: 29°   Visibility: 6mi
Dew Point: 27°   Wind: 7mph
Humidity: 92%   Direction: 330°NNW
Pressure: 30.03"   Gusts: NA
Location:  41.05°N, 82.73°W
Report Text: KMFD 270252Z 33006KT 6SM BR FEW009 BKN030 M02/M03 A3003 RMK AO2 SLP182 T10171028 53000
Loading
Personal Weather Stations






























Interactive Weather Map New forecast layout! Learn more

10-Day Weather Forecast

Advertisements
Track Severe Weather on mobile